sensor_id;sensor_type;location;lat;lon;timestamp;P1;durP1;ratioP1;P2;durP2;ratioP2
63782;SDS011;49925;52.522;5.732;2022-07-12T01:57:35;19.60;;;8.10;;
63782;SDS011;49925;52.522;5.732;2022-07-12T02:00:06;14.85;;;7.82;;
63782;SDS011;49925;52.522;5.732;2022-07-12T02:05:01;18.00;;;9.10;;
63782;SDS011;49925;52.522;5.732;2022-07-12T02:07:29;16.67;;;8.00;;
63782;SDS011;49925;52.522;5.732;2022-07-12T02:09:57;17.70;;;8.88;;
63782;SDS011;49925;52.522;5.732;2022-07-12T02:12:25;18.77;;;8.02;;
63782;SDS011;49925;52.522;5.732;2022-07-12T02:14:52;14.70;;;8.38;;
63782;SDS011;49925;52.522;5.732;2022-07-12T02:17:19;13.57;;;7.85;;
63782;SDS011;49925;52.522;5.732;2022-07-12T02:19:47;14.68;;;7.15;;
63782;SDS011;49925;52.522;5.732;2022-07-12T02:22:14;16.77;;;8.13;;
63782;SDS011;49925;52.522;5.732;2022-07-12T02:24:41;11.13;;;6.70;;
63782;SDS011;49925;52.522;5.732;2022-07-12T02:27:08;13.57;;;6.57;;
63782;SDS011;49925;52.522;5.732;2022-07-12T02:29:35;8.68;;;5.45;;
63782;SDS011;49925;52.522;5.732;2022-07-12T02:32:03;9.02;;;5.70;;
63782;SDS011;49925;52.522;5.732;2022-07-12T02:34:30;10.93;;;5.38;;
63782;SDS011;49925;52.522;5.732;2022-07-12T02:36:57;12.00;;;5.57;;
63782;SDS011;49925;52.522;5.732;2022-07-12T02:39:25;9.68;;;5.75;;
63782;SDS011;49925;52.522;5.732;2022-07-12T03:21:07;13.63;;;6.00;;
63782;SDS011;49925;52.522;5.732;2022-07-12T03:23:35;10.48;;;5.40;;
63782;SDS011;49925;52.522;5.732;2022-07-12T03:26:02;9.75;;;5.70;;
63782;SDS011;49925;52.522;5.732;2022-07-12T03:28:30;11.95;;;5.80;;
63782;SDS011;49925;52.522;5.732;2022-07-12T03:35:58;15.65;;;6.60;;
63782;SDS011;49925;52.522;5.732;2022-07-12T03:38:26;11.82;;;7.15;;
63782;SDS011;49925;52.522;5.732;2022-07-12T03:40:53;10.20;;;6.90;;
63782;SDS011;49925;52.522;5.732;2022-07-12T03:43:20;11.45;;;6.75;;
63782;SDS011;49925;52.522;5.732;2022-07-12T03:45:48;11.95;;;6.53;;
63782;SDS011;49925;52.522;5.732;2022-07-12T03:48:15;15.02;;;6.72;;
63782;SDS011;49925;52.522;5.732;2022-07-12T03:50:43;11.98;;;7.13;;
63782;SDS011;49925;52.522;5.732;2022-07-12T03:53:12;16.23;;;8.05;;
63782;SDS011;49925;52.522;5.732;2022-07-12T03:55:39;12.50;;;8.18;;
63782;SDS011;49925;52.522;5.732;2022-07-12T03:58:06;16.45;;;9.43;;
63782;SDS011;49925;52.522;5.732;2022-07-12T04:00:35;14.95;;;9.25;;
63782;SDS011;49925;52.522;5.732;2022-07-12T04:03:06;17.67;;;8.50;;
63782;SDS011;49925;52.522;5.732;2022-07-12T04:05:33;17.20;;;9.20;;
63782;SDS011;49925;52.522;5.732;2022-07-12T04:08:00;15.13;;;9.07;;
63782;SDS011;49925;52.522;5.732;2022-07-12T04:10:28;19.83;;;9.13;;
63782;SDS011;49925;52.522;5.732;2022-07-12T04:12:55;20.73;;;7.95;;
63782;SDS011;49925;52.522;5.732;2022-07-12T04:15:23;14.85;;;8.93;;
63782;SDS011;49925;52.522;5.732;2022-07-12T04:17:50;19.17;;;8.98;;
63782;SDS011;49925;52.522;5.732;2022-07-12T04:20:17;13.55;;;7.88;;
63782;SDS011;49925;52.522;5.732;2022-07-12T04:22:44;13.30;;;7.78;;
63782;SDS011;49925;52.522;5.732;2022-07-12T04:25:11;15.88;;;8.23;;
63782;SDS011;49925;52.522;5.732;2022-07-12T04:27:38;13.00;;;8.40;;
63782;SDS011;49925;52.522;5.732;2022-07-12T04:30:06;12.80;;;8.10;;
63782;SDS011;49925;52.522;5.732;2022-07-12T04:32:35;15.52;;;9.02;;
63782;SDS011;49925;52.522;5.732;2022-07-12T04:35:02;17.67;;;9.00;;
63782;SDS011;49925;52.522;5.732;2022-07-12T04:37:30;19.85;;;8.60;;
63782;SDS011;49925;52.522;5.732;2022-07-12T04:39:57;13.10;;;8.52;;
63782;SDS011;49925;52.522;5.732;2022-07-12T04:42:24;13.38;;;8.07;;
63782;SDS011;49925;52.522;5.732;2022-07-12T04:44:51;14.63;;;9.15;;
63782;SDS011;49925;52.522;5.732;2022-07-12T04:47:20;15.68;;;9.75;;
63782;SDS011;49925;52.522;5.732;2022-07-12T04:49:47;13.05;;;8.27;;
63782;SDS011;49925;52.522;5.732;2022-07-12T04:52:14;12.05;;;8.05;;
63782;SDS011;49925;52.522;5.732;2022-07-12T04:54:41;14.15;;;8.40;;
63782;SDS011;49925;52.522;5.732;2022-07-12T04:57:08;13.88;;;8.25;;
63782;SDS011;49925;52.522;5.732;2022-07-12T04:59:35;15.07;;;8.68;;
63782;SDS011;49925;52.522;5.732;2022-07-12T05:02:03;19.73;;;10.32;;
63782;SDS011;49925;52.522;5.732;2022-07-12T05:04:31;15.77;;;9.18;;
63782;SDS011;49925;52.522;5.732;2022-07-12T05:09:30;18.85;;;9.30;;
63782;SDS011;49925;52.522;5.732;2022-07-12T05:11:57;14.88;;;9.18;;
63782;SDS011;49925;52.522;5.732;2022-07-12T05:14:24;17.42;;;10.18;;
63782;SDS011;49925;52.522;5.732;2022-07-12T05:16:51;19.92;;;9.75;;
63782;SDS011;49925;52.522;5.732;2022-07-12T05:19:19;19.67;;;9.88;;
63782;SDS011;49925;52.522;5.732;2022-07-12T05:21:46;17.00;;;9.30;;
63782;SDS011;49925;52.522;5.732;2022-07-12T05:24:13;18.70;;;9.93;;
63782;SDS011;49925;52.522;5.732;2022-07-12T05:26:40;21.00;;;10.65;;
63782;SDS011;49925;52.522;5.732;2022-07-12T05:29:07;18.15;;;10.45;;
63782;SDS011;49925;52.522;5.732;2022-07-12T05:31:37;17.33;;;10.57;;
63782;SDS011;49925;52.522;5.732;2022-07-12T05:34:07;18.08;;;10.88;;
63782;SDS011;49925;52.522;5.732;2022-07-12T05:36:35;18.80;;;11.48;;
63782;SDS011;49925;52.522;5.732;2022-07-12T05:39:02;22.80;;;10.65;;
63782;SDS011;49925;52.522;5.732;2022-07-12T05:41:30;22.52;;;10.70;;
63782;SDS011;49925;52.522;5.732;2022-07-12T05:43:58;24.50;;;11.30;;
63782;SDS011;49925;52.522;5.732;2022-07-12T05:46:25;19.42;;;10.85;;
63782;SDS011;49925;52.522;5.732;2022-07-12T05:48:53;18.52;;;10.77;;
63782;SDS011;49925;52.522;5.732;2022-07-12T05:51:21;20.45;;;11.07;;
63782;SDS011;49925;52.522;5.732;2022-07-12T05:54:07;21.98;;;11.25;;
63782;SDS011;49925;52.522;5.732;2022-07-12T05:56:34;28.38;;;12.25;;
63782;SDS011;49925;52.522;5.732;2022-07-12T05:59:01;17.58;;;11.80;;
63782;SDS011;49925;52.522;5.732;2022-07-12T06:28:26;22.92;;;11.48;;
63782;SDS011;49925;52.522;5.732;2022-07-12T06:30:54;19.60;;;12.02;;
63782;SDS011;49925;52.522;5.732;2022-07-12T06:33:21;24.05;;;12.15;;
63782;SDS011;49925;52.522;5.732;2022-07-12T06:35:48;23.30;;;11.93;;
63782;SDS011;49925;52.522;5.732;2022-07-12T06:38:15;24.80;;;10.68;;
63782;SDS011;49925;52.522;5.732;2022-07-12T06:40:43;16.98;;;10.88;;
63782;SDS011;49925;52.522;5.732;2022-07-12T06:43:10;20.30;;;11.85;;
63782;SDS011;49925;52.522;5.732;2022-07-12T06:50:33;18.55;;;10.65;;
63782;SDS011;49925;52.522;5.732;2022-07-12T06:57:54;22.58;;;9.70;;
63782;SDS011;49925;52.522;5.732;2022-07-12T07:00:21;14.85;;;9.52;;
63782;SDS011;49925;52.522;5.732;2022-07-12T07:02:49;15.68;;;9.10;;
63782;SDS011;49925;52.522;5.732;2022-07-12T07:10:12;13.37;;;7.80;;
63782;SDS011;49925;52.522;5.732;2022-07-12T07:12:39;13.57;;;8.00;;
63782;SDS011;49925;52.522;5.732;2022-07-12T09:15:45;10.98;;;7.22;;
63782;SDS011;49925;52.522;5.732;2022-07-12T09:18:17;9.80;;;7.30;;
63782;SDS011;49925;52.522;5.732;2022-07-12T09:20:52;12.60;;;6.90;;
63782;SDS011;49925;52.522;5.732;2022-07-12T09:23:19;14.25;;;7.70;;
63782;SDS011;49925;52.522;5.732;2022-07-12T09:25:47;12.73;;;7.82;;
63782;SDS011;49925;52.522;5.732;2022-07-12T09:28:17;17.48;;;6.70;;
63782;SDS011;49925;52.522;5.732;2022-07-12T09:56:13;13.10;;;6.80;;
63782;SDS011;49925;52.522;5.732;2022-07-12T10:01:23;16.70;;;6.35;;
63782;SDS011;49925;52.522;5.732;2022-07-12T10:03:52;15.05;;;5.40;;
63782;SDS011;49925;52.522;5.732;2022-07-12T10:06:26;8.27;;;4.53;;
63782;SDS011;49925;52.522;5.732;2022-07-12T10:09:01;9.88;;;5.03;;
63782;SDS011;49925;52.522;5.732;2022-07-12T10:11:29;9.18;;;4.57;;
63782;SDS011;49925;52.522;5.732;2022-07-12T10:14:17;9.00;;;4.47;;
63782;SDS011;49925;52.522;5.732;2022-07-12T10:16:45;8.85;;;4.43;;
63782;SDS011;49925;52.522;5.732;2022-07-12T10:19:26;6.60;;;3.80;;
63782;SDS011;49925;52.522;5.732;2022-07-12T10:21:59;8.30;;;4.00;;
63782;SDS011;49925;52.522;5.732;2022-07-12T10:27:26;13.30;;;3.63;;
63782;SDS011;49925;52.522;5.732;2022-07-12T10:29:48;14.80;;;5.80;;
63782;SDS011;49925;52.522;5.732;2022-07-12T10:32:20;12.93;;;5.97;;
63782;SDS011;49925;52.522;5.732;2022-07-12T10:35:04;15.60;;;5.95;;
63782;SDS011;49925;52.522;5.732;2022-07-12T10:37:33;13.30;;;4.95;;
63782;SDS011;49925;52.522;5.732;2022-07-12T10:40:22;13.23;;;5.93;;
63782;SDS011;49925;52.522;5.732;2022-07-12T10:45:33;8.73;;;4.30;;
63782;SDS011;49925;52.522;5.732;2022-07-12T10:48:21;12.85;;;4.80;;
63782;SDS011;49925;52.522;5.732;2022-07-12T10:50:54;12.60;;;5.22;;
63782;SDS011;49925;52.522;5.732;2022-07-12T10:56:07;12.73;;;7.45;;
63782;SDS011;49925;52.522;5.732;2022-07-12T10:58:57;18.30;;;7.00;;
63782;SDS011;49925;52.522;5.732;2022-07-12T11:01:29;20.40;;;7.55;;
63782;SDS011;49925;52.522;5.732;2022-07-12T11:04:07;15.15;;;6.30;;
63782;SDS011;49925;52.522;5.732;2022-07-12T11:06:39;11.48;;;6.72;;
63782;SDS011;49925;52.522;5.732;2022-07-12T11:09:09;12.43;;;5.97;;
63782;SDS011;49925;52.522;5.732;2022-07-12T11:14:10;6.27;;;4.27;;
63782;SDS011;49925;52.522;5.732;2022-07-12T11:16:45;9.48;;;4.45;;
63782;SDS011;49925;52.522;5.732;2022-07-12T11:19:14;6.38;;;3.80;;
63782;SDS011;49925;52.522;5.732;2022-07-12T11:21:45;8.82;;;4.35;;
63782;SDS011;49925;52.522;5.732;2022-07-12T11:24:16;5.50;;;3.58;;
63782;SDS011;49925;52.522;5.732;2022-07-12T11:26:45;7.38;;;3.85;;
63782;SDS011;49925;52.522;5.732;2022-07-12T11:29:14;8.93;;;3.28;;
63782;SDS011;49925;52.522;5.732;2022-07-12T11:31:42;5.63;;;3.40;;
63782;SDS011;49925;52.522;5.732;2022-07-12T11:34:22;5.90;;;3.17;;
63782;SDS011;49925;52.522;5.732;2022-07-12T11:36:53;5.82;;;3.60;;
63782;SDS011;49925;52.522;5.732;2022-07-12T11:39:36;12.23;;;3.08;;
63782;SDS011;49925;52.522;5.732;2022-07-12T11:42:05;5.32;;;3.15;;
63782;SDS011;49925;52.522;5.732;2022-07-12T11:44:40;4.93;;;2.97;;
63782;SDS011;49925;52.522;5.732;2022-07-12T11:47:09;3.95;;;2.47;;
63782;SDS011;49925;52.522;5.732;2022-07-12T11:49:37;4.35;;;2.17;;
63782;SDS011;49925;52.522;5.732;2022-07-12T11:52:16;4.70;;;2.15;;
63782;SDS011;49925;52.522;5.732;2022-07-12T11:54:44;6.90;;;3.10;;
63782;SDS011;49925;52.522;5.732;2022-07-12T11:57:13;7.38;;;2.90;;
63782;SDS011;49925;52.522;5.732;2022-07-12T11:59:41;5.97;;;2.40;;
63782;SDS011;49925;52.522;5.732;2022-07-12T12:02:12;4.13;;;2.65;;
63782;SDS011;49925;52.522;5.732;2022-07-12T12:04:49;7.80;;;3.60;;
63782;SDS011;49925;52.522;5.732;2022-07-12T12:07:18;6.65;;;3.80;;
63782;SDS011;49925;52.522;5.732;2022-07-12T12:10:00;16.27;;;4.30;;
63782;SDS011;49925;52.522;5.732;2022-07-12T12:30:51;6.32;;;3.10;;
63782;SDS011;49925;52.522;5.732;2022-07-12T12:33:37;6.93;;;2.90;;
63782;SDS011;49925;52.522;5.732;2022-07-12T12:36:20;10.82;;;3.00;;
63782;SDS011;49925;52.522;5.732;2022-07-12T12:38:54;6.43;;;2.90;;
63782;SDS011;49925;52.522;5.732;2022-07-12T12:41:30;8.85;;;2.72;;
63782;SDS011;49925;52.522;5.732;2022-07-12T12:44:06;7.93;;;4.10;;
63782;SDS011;49925;52.522;5.732;2022-07-12T12:46:42;10.70;;;3.45;;
63782;SDS011;49925;52.522;5.732;2022-07-12T12:52:23;5.10;;;3.17;;
63782;SDS011;49925;52.522;5.732;2022-07-12T12:54:52;10.00;;;3.17;;
63782;SDS011;49925;52.522;5.732;2022-07-12T12:57:20;7.57;;;3.40;;
63782;SDS011;49925;52.522;5.732;2022-07-12T12:59:50;10.75;;;4.25;;
63782;SDS011;49925;52.522;5.732;2022-07-12T13:02:19;8.23;;;3.78;;
63782;SDS011;49925;52.522;5.732;2022-07-12T13:04:49;7.13;;;4.05;;
63782;SDS011;49925;52.522;5.732;2022-07-12T13:07:17;11.07;;;4.10;;
63782;SDS011;49925;52.522;5.732;2022-07-12T13:09:44;7.53;;;3.80;;
63782;SDS011;49925;52.522;5.732;2022-07-12T13:12:11;12.25;;;4.78;;
63782;SDS011;49925;52.522;5.732;2022-07-12T13:14:41;7.35;;;4.00;;
63782;SDS011;49925;52.522;5.732;2022-07-12T13:17:11;14.60;;;3.97;;
63782;SDS011;49925;52.522;5.732;2022-07-12T13:19:38;4.95;;;3.40;;
63782;SDS011;49925;52.522;5.732;2022-07-12T13:22:05;13.73;;;3.63;;
63782;SDS011;49925;52.522;5.732;2022-07-12T13:24:33;14.18;;;3.75;;
63782;SDS011;49925;52.522;5.732;2022-07-12T13:27:00;8.48;;;4.88;;
63782;SDS011;49925;52.522;5.732;2022-07-12T13:29:28;11.77;;;5.38;;
63782;SDS011;49925;52.522;5.732;2022-07-12T13:31:55;10.18;;;4.78;;
63782;SDS011;49925;52.522;5.732;2022-07-12T13:34:23;9.75;;;4.25;;
63782;SDS011;49925;52.522;5.732;2022-07-12T13:36:50;9.32;;;3.90;;
63782;SDS011;49925;52.522;5.732;2022-07-12T13:49:25;6.18;;;3.17;;
63782;SDS011;49925;52.522;5.732;2022-07-12T13:51:52;5.82;;;3.10;;
63782;SDS011;49925;52.522;5.732;2022-07-12T13:54:19;10.45;;;3.75;;
63782;SDS011;49925;52.522;5.732;2022-07-12T13:56:46;8.50;;;3.45;;
63782;SDS011;49925;52.522;5.732;2022-07-12T13:59:16;5.47;;;3.05;;
63782;SDS011;49925;52.522;5.732;2022-07-12T14:01:43;6.25;;;3.80;;
63782;SDS011;49925;52.522;5.732;2022-07-12T14:04:10;5.30;;;3.22;;
63782;SDS011;49925;52.522;5.732;2022-07-12T14:06:38;8.40;;;3.53;;
63782;SDS011;49925;52.522;5.732;2022-07-12T14:09:05;9.60;;;4.00;;
63782;SDS011;49925;52.522;5.732;2022-07-12T14:11:32;10.45;;;4.10;;
63782;SDS011;49925;52.522;5.732;2022-07-12T14:14:00;9.05;;;4.13;;
63782;SDS011;49925;52.522;5.732;2022-07-12T14:16:27;7.13;;;3.83;;
63782;SDS011;49925;52.522;5.732;2022-07-12T14:18:54;8.00;;;3.40;;
63782;SDS011;49925;52.522;5.732;2022-07-12T14:21:22;10.82;;;3.72;;
63782;SDS011;49925;52.522;5.732;2022-07-12T14:23:49;8.60;;;3.70;;
63782;SDS011;49925;52.522;5.732;2022-07-12T14:26:17;11.43;;;3.10;;
63782;SDS011;49925;52.522;5.732;2022-07-12T14:28:44;5.40;;;2.90;;
63782;SDS011;49925;52.522;5.732;2022-07-12T14:31:11;4.35;;;3.13;;
63782;SDS011;49925;52.522;5.732;2022-07-12T14:33:38;27.73;;;4.20;;
63782;SDS011;49925;52.522;5.732;2022-07-12T14:36:05;5.75;;;2.90;;
63782;SDS011;49925;52.522;5.732;2022-07-12T14:38:34;8.07;;;3.63;;
63782;SDS011;49925;52.522;5.732;2022-07-12T14:41:02;8.48;;;3.70;;
63782;SDS011;49925;52.522;5.732;2022-07-12T14:43:29;8.23;;;3.20;;
63782;SDS011;49925;52.522;5.732;2022-07-12T14:45:56;7.25;;;3.47;;
63782;SDS011;49925;52.522;5.732;2022-07-12T14:48:23;10.45;;;3.20;;
63782;SDS011;49925;52.522;5.732;2022-07-12T14:50:50;8.93;;;3.80;;
63782;SDS011;49925;52.522;5.732;2022-07-12T14:53:19;8.65;;;3.38;;
63782;SDS011;49925;52.522;5.732;2022-07-12T14:55:46;10.50;;;4.30;;
63782;SDS011;49925;52.522;5.732;2022-07-12T14:58:13;33.42;;;12.38;;
63782;SDS011;49925;52.522;5.732;2022-07-12T15:00:41;8.25;;;3.60;;
63782;SDS011;49925;52.522;5.732;2022-07-12T15:03:08;9.35;;;3.58;;
63782;SDS011;49925;52.522;5.732;2022-07-12T15:05:36;6.47;;;3.65;;
63782;SDS011;49925;52.522;5.732;2022-07-12T15:08:06;6.97;;;3.45;;
63782;SDS011;49925;52.522;5.732;2022-07-12T15:10:34;9.52;;;4.13;;
63782;SDS011;49925;52.522;5.732;2022-07-12T15:13:02;12.63;;;4.10;;
63782;SDS011;49925;52.522;5.732;2022-07-12T15:15:30;7.47;;;3.90;;
63782;SDS011;49925;52.522;5.732;2022-07-12T15:17:58;9.27;;;4.03;;
63782;SDS011;49925;52.522;5.732;2022-07-12T15:20:26;8.85;;;4.53;;
63782;SDS011;49925;52.522;5.732;2022-07-12T15:22:58;5.70;;;4.00;;
63782;SDS011;49925;52.522;5.732;2022-07-12T15:25:26;7.53;;;4.35;;
63782;SDS011;49925;52.522;5.732;2022-07-12T15:27:53;6.75;;;4.07;;
63782;SDS011;49925;52.522;5.732;2022-07-12T15:30:21;9.93;;;4.47;;
63782;SDS011;49925;52.522;5.732;2022-07-12T15:32:48;8.88;;;3.80;;
63782;SDS011;49925;52.522;5.732;2022-07-12T15:35:19;12.02;;;3.55;;
63782;SDS011;49925;52.522;5.732;2022-07-12T15:37:46;11.75;;;3.90;;
63782;SDS011;49925;52.522;5.732;2022-07-12T15:40:13;10.98;;;4.97;;
63782;SDS011;49925;52.522;5.732;2022-07-12T15:42:40;10.57;;;4.80;;
63782;SDS011;49925;52.522;5.732;2022-07-12T15:45:08;7.60;;;4.10;;
63782;SDS011;49925;52.522;5.732;2022-07-12T15:47:37;10.50;;;4.60;;
63782;SDS011;49925;52.522;5.732;2022-07-12T15:50:07;12.02;;;4.60;;
63782;SDS011;49925;52.522;5.732;2022-07-12T15:52:35;10.60;;;4.75;;
63782;SDS011;49925;52.522;5.732;2022-07-12T15:55:22;11.77;;;4.88;;
63782;SDS011;49925;52.522;5.732;2022-07-12T15:57:49;11.93;;;4.95;;
63782;SDS011;49925;52.522;5.732;2022-07-12T16:00:16;9.80;;;4.53;;
63782;SDS011;49925;52.522;5.732;2022-07-12T16:02:43;9.57;;;4.50;;
63782;SDS011;49925;52.522;5.732;2022-07-12T16:05:11;9.50;;;4.50;;
63782;SDS011;49925;52.522;5.732;2022-07-12T16:07:38;9.90;;;4.50;;
63782;SDS011;49925;52.522;5.732;2022-07-12T16:10:06;9.93;;;4.10;;
63782;SDS011;49925;52.522;5.732;2022-07-12T16:12:34;12.85;;;4.28;;
63782;SDS011;49925;52.522;5.732;2022-07-12T16:15:01;8.23;;;4.45;;
63782;SDS011;49925;52.522;5.732;2022-07-12T16:17:28;9.98;;;4.60;;
63782;SDS011;49925;52.522;5.732;2022-07-12T16:19:55;9.68;;;4.60;;
63782;SDS011;49925;52.522;5.732;2022-07-12T16:22:23;6.50;;;3.95;;
63782;SDS011;49925;52.522;5.732;2022-07-12T16:24:50;14.20;;;5.07;;
63782;SDS011;49925;52.522;5.732;2022-07-12T16:27:17;7.43;;;4.70;;
63782;SDS011;49925;52.522;5.732;2022-07-12T16:29:44;12.48;;;4.43;;
63782;SDS011;49925;52.522;5.732;2022-07-12T16:32:11;11.05;;;4.40;;
63782;SDS011;49925;52.522;5.732;2022-07-12T16:34:39;9.43;;;4.60;;
63782;SDS011;49925;52.522;5.732;2022-07-12T16:37:07;7.82;;;4.13;;
63782;SDS011;49925;52.522;5.732;2022-07-12T16:39:35;9.32;;;4.38;;
63782;SDS011;49925;52.522;5.732;2022-07-12T16:42:05;12.73;;;4.40;;
63782;SDS011;49925;52.522;5.732;2022-07-12T16:44:32;12.73;;;4.20;;
63782;SDS011;49925;52.522;5.732;2022-07-12T16:47:02;8.95;;;4.00;;
63782;SDS011;49925;52.522;5.732;2022-07-12T16:49:30;10.90;;;4.22;;
63782;SDS011;49925;52.522;5.732;2022-07-12T16:51:57;8.68;;;4.65;;
63782;SDS011;49925;52.522;5.732;2022-07-12T16:54:24;12.77;;;4.18;;
63782;SDS011;49925;52.522;5.732;2022-07-12T16:56:55;9.38;;;3.75;;
63782;SDS011;49925;52.522;5.732;2022-07-12T16:59:22;12.02;;;4.18;;
63782;SDS011;49925;52.522;5.732;2022-07-12T17:01:49;17.48;;;4.78;;
63782;SDS011;49925;52.522;5.732;2022-07-12T17:04:16;8.70;;;4.82;;
63782;SDS011;49925;52.522;5.732;2022-07-12T17:06:44;16.00;;;4.85;;
63782;SDS011;49925;52.522;5.732;2022-07-12T17:09:19;10.40;;;4.60;;
63782;SDS011;49925;52.522;5.732;2022-07-12T17:11:46;8.63;;;4.45;;
63782;SDS011;49925;52.522;5.732;2022-07-12T17:14:13;8.95;;;4.65;;
63782;SDS011;49925;52.522;5.732;2022-07-12T17:16:40;13.55;;;5.38;;
63782;SDS011;49925;52.522;5.732;2022-07-12T17:19:07;8.82;;;4.70;;
63782;SDS011;49925;52.522;5.732;2022-07-12T17:21:35;9.45;;;4.93;;
63782;SDS011;49925;52.522;5.732;2022-07-12T17:24:02;12.38;;;4.95;;
63782;SDS011;49925;52.522;5.732;2022-07-12T17:26:39;10.13;;;5.03;;
63782;SDS011;49925;52.522;5.732;2022-07-12T17:29:06;9.88;;;5.00;;
63782;SDS011;49925;52.522;5.732;2022-07-12T17:31:34;12.07;;;5.05;;
63782;SDS011;49925;52.522;5.732;2022-07-12T17:34:02;13.38;;;5.50;;
63782;SDS011;49925;52.522;5.732;2022-07-12T17:36:29;9.13;;;4.70;;
63782;SDS011;49925;52.522;5.732;2022-07-12T17:38:56;14.25;;;6.47;;
63782;SDS011;49925;52.522;5.732;2022-07-12T17:41:23;23.08;;;6.00;;
63782;SDS011;49925;52.522;5.732;2022-07-12T17:43:51;16.27;;;5.55;;
63782;SDS011;49925;52.522;5.732;2022-07-12T17:46:20;14.50;;;5.80;;
63782;SDS011;49925;52.522;5.732;2022-07-12T17:48:47;11.98;;;5.32;;
63782;SDS011;49925;52.522;5.732;2022-07-12T17:51:15;9.50;;;4.65;;
63782;SDS011;49925;52.522;5.732;2022-07-12T17:53:42;9.65;;;5.10;;
63782;SDS011;49925;52.522;5.732;2022-07-12T17:56:10;10.32;;;5.00;;
63782;SDS011;49925;52.522;5.732;2022-07-12T17:58:37;19.55;;;8.63;;
63782;SDS011;49925;52.522;5.732;2022-07-12T18:01:08;12.77;;;5.65;;
63782;SDS011;49925;52.522;5.732;2022-07-12T18:03:46;12.77;;;5.28;;
63782;SDS011;49925;52.522;5.732;2022-07-12T18:06:15;10.60;;;5.80;;
63782;SDS011;49925;52.522;5.732;2022-07-12T18:08:42;8.68;;;4.63;;
63782;SDS011;49925;52.522;5.732;2022-07-12T18:11:10;8.90;;;5.18;;
63782;SDS011;49925;52.522;5.732;2022-07-12T18:13:56;7.93;;;5.00;;
63782;SDS011;49925;52.522;5.732;2022-07-12T18:16:42;7.53;;;5.05;;
63782;SDS011;49925;52.522;5.732;2022-07-12T18:19:10;16.63;;;5.65;;
63782;SDS011;49925;52.522;5.732;2022-07-12T18:21:37;13.25;;;6.45;;
63782;SDS011;49925;52.522;5.732;2022-07-12T18:24:05;9.23;;;5.93;;
63782;SDS011;49925;52.522;5.732;2022-07-12T18:26:32;15.07;;;7.13;;
63782;SDS011;49925;52.522;5.732;2022-07-12T18:28:59;12.32;;;7.13;;
63782;SDS011;49925;52.522;5.732;2022-07-12T18:31:27;15.65;;;7.13;;
63782;SDS011;49925;52.522;5.732;2022-07-12T18:33:54;15.77;;;7.18;;
63782;SDS011;49925;52.522;5.732;2022-07-12T18:36:22;13.93;;;7.53;;
63782;SDS011;49925;52.522;5.732;2022-07-12T18:38:49;15.15;;;6.60;;
63782;SDS011;49925;52.522;5.732;2022-07-12T18:41:16;15.25;;;7.72;;
63782;SDS011;49925;52.522;5.732;2022-07-12T18:43:44;17.13;;;8.88;;
63782;SDS011;49925;52.522;5.732;2022-07-12T18:46:12;19.27;;;8.43;;
63782;SDS011;49925;52.522;5.732;2022-07-12T18:48:39;26.63;;;9.00;;
63782;SDS011;49925;52.522;5.732;2022-07-12T18:51:07;15.60;;;8.02;;
63782;SDS011;49925;52.522;5.732;2022-07-12T18:53:34;18.73;;;7.07;;
63782;SDS011;49925;52.522;5.732;2022-07-12T18:56:01;17.15;;;6.43;;
63782;SDS011;49925;52.522;5.732;2022-07-12T18:58:28;14.63;;;6.03;;
63782;SDS011;49925;52.522;5.732;2022-07-12T19:00:55;18.85;;;7.13;;
63782;SDS011;49925;52.522;5.732;2022-07-12T19:03:23;18.45;;;7.38;;
63782;SDS011;49925;52.522;5.732;2022-07-12T19:05:50;12.18;;;7.25;;
63782;SDS011;49925;52.522;5.732;2022-07-12T19:08:17;10.93;;;6.20;;
63782;SDS011;49925;52.522;5.732;2022-07-12T19:10:44;14.48;;;7.00;;
63782;SDS011;49925;52.522;5.732;2022-07-12T19:13:19;12.38;;;6.63;;
63782;SDS011;49925;52.522;5.732;2022-07-12T19:15:48;17.67;;;6.70;;
63782;SDS011;49925;52.522;5.732;2022-07-12T19:18:15;15.60;;;6.50;;
63782;SDS011;49925;52.522;5.732;2022-07-12T19:20:42;14.05;;;7.25;;
63782;SDS011;49925;52.522;5.732;2022-07-12T19:23:09;18.02;;;7.10;;
63782;SDS011;49925;52.522;5.732;2022-07-12T19:25:37;12.82;;;7.30;;
63782;SDS011;49925;52.522;5.732;2022-07-12T19:28:07;10.52;;;6.60;;
63782;SDS011;49925;52.522;5.732;2022-07-12T19:30:34;12.93;;;6.95;;
63782;SDS011;49925;52.522;5.732;2022-07-12T19:33:03;15.60;;;6.90;;
63782;SDS011;49925;52.522;5.732;2022-07-12T19:35:30;15.80;;;8.48;;
63782;SDS011;49925;52.522;5.732;2022-07-12T19:37:57;18.70;;;8.02;;
63782;SDS011;49925;52.522;5.732;2022-07-12T19:40:25;18.08;;;8.05;;
63782;SDS011;49925;52.522;5.732;2022-07-12T19:42:53;16.63;;;8.13;;
63782;SDS011;49925;52.522;5.732;2022-07-12T19:45:23;15.43;;;8.63;;
63782;SDS011;49925;52.522;5.732;2022-07-12T19:47:51;16.95;;;8.80;;
63782;SDS011;49925;52.522;5.732;2022-07-12T19:50:18;18.90;;;9.00;;
63782;SDS011;49925;52.522;5.732;2022-07-12T19:52:45;15.63;;;8.90;;
63782;SDS011;49925;52.522;5.732;2022-07-12T19:55:13;17.67;;;8.95;;
63782;SDS011;49925;52.522;5.732;2022-07-12T19:57:40;17.08;;;9.45;;
63782;SDS011;49925;52.522;5.732;2022-07-12T20:00:07;16.92;;;9.07;;
63782;SDS011;49925;52.522;5.732;2022-07-12T20:02:41;15.85;;;8.68;;
63782;SDS011;49925;52.522;5.732;2022-07-12T20:05:08;15.30;;;8.67;;
63782;SDS011;49925;52.522;5.732;2022-07-12T20:07:36;23.83;;;8.40;;
63782;SDS011;49925;52.522;5.732;2022-07-12T20:10:04;18.02;;;9.05;;
63782;SDS011;49925;52.522;5.732;2022-07-12T20:12:32;21.08;;;9.52;;
63782;SDS011;49925;52.522;5.732;2022-07-12T20:14:59;22.00;;;10.88;;
63782;SDS011;49925;52.522;5.732;2022-07-12T20:17:26;21.15;;;9.43;;
63782;SDS011;49925;52.522;5.732;2022-07-12T20:19:53;23.98;;;10.85;;
63782;SDS011;49925;52.522;5.732;2022-07-12T20:22:20;25.10;;;11.00;;
63782;SDS011;49925;52.522;5.732;2022-07-12T20:24:47;17.77;;;10.20;;
63782;SDS011;49925;52.522;5.732;2022-07-12T20:27:15;21.17;;;9.80;;
63782;SDS011;49925;52.522;5.732;2022-07-12T20:29:42;21.25;;;10.52;;
63782;SDS011;49925;52.522;5.732;2022-07-12T20:32:09;27.30;;;11.63;;
63782;SDS011;49925;52.522;5.732;2022-07-12T20:34:37;23.35;;;10.80;;
63782;SDS011;49925;52.522;5.732;2022-07-12T20:37:08;20.93;;;11.37;;
63782;SDS011;49925;52.522;5.732;2022-07-12T20:39:36;18.42;;;11.35;;
63782;SDS011;49925;52.522;5.732;2022-07-12T20:42:05;28.00;;;12.30;;
63782;SDS011;49925;52.522;5.732;2022-07-12T20:44:39;27.00;;;12.10;;
63782;SDS011;49925;52.522;5.732;2022-07-12T20:47:06;27.00;;;12.63;;
63782;SDS011;49925;52.522;5.732;2022-07-12T20:52:05;34.17;;;12.50;;
63782;SDS011;49925;52.522;5.732;2022-07-12T20:54:32;29.45;;;12.55;;
63782;SDS011;49925;52.522;5.732;2022-07-12T20:57:00;36.80;;;13.57;;
63782;SDS011;49925;52.522;5.732;2022-07-12T20:59:28;33.10;;;12.75;;
63782;SDS011;49925;52.522;5.732;2022-07-12T21:01:55;28.88;;;14.43;;
63782;SDS011;49925;52.522;5.732;2022-07-12T21:04:22;34.28;;;12.93;;
63782;SDS011;49925;52.522;5.732;2022-07-12T21:06:49;28.73;;;12.25;;
63782;SDS011;49925;52.522;5.732;2022-07-12T21:09:17;31.52;;;13.48;;
63782;SDS011;49925;52.522;5.732;2022-07-12T21:11:44;21.17;;;12.85;;
63782;SDS011;49925;52.522;5.732;2022-07-12T21:58:28;26.08;;;13.40;;
63782;SDS011;49925;52.522;5.732;2022-07-12T22:00:55;26.42;;;13.65;;
63782;SDS011;49925;52.522;5.732;2022-07-12T22:03:23;29.77;;;13.43;;
63782;SDS011;49925;52.522;5.732;2022-07-12T22:20:32;27.98;;;16.10;;
63782;SDS011;49925;52.522;5.732;2022-07-12T22:23:00;28.45;;;15.20;;
63782;SDS011;49925;52.522;5.732;2022-07-12T22:25:27;28.30;;;15.55;;